sensor_id;sensor_type;location;lat;lon;timestamp;temperature;humidity
67249;SHT31;63247;54.300;18.592;2023-09-19T00:02:12;19.66;92.52
67249;SHT31;63247;54.300;18.592;2023-09-19T00:04:37;19.60;92.55
67249;SHT31;63247;54.300;18.592;2023-09-19T00:07:05;19.60;92.76
67249;SHT31;63247;54.300;18.592;2023-09-19T00:09:30;19.60;92.87
67249;SHT31;63247;54.300;18.592;2023-09-19T00:12:02;19.60;92.85
67249;SHT31;63247;54.300;18.592;2023-09-19T00:14:28;19.58;92.83
67249;SHT31;63247;54.300;18.592;2023-09-19T00:16:53;19.63;92.65
67249;SHT31;63247;54.300;18.592;2023-09-19T00:19:20;19.63;92.93
67249;SHT31;63247;54.300;18.592;2023-09-19T00:21:45;19.61;93.03
67249;SHT31;63247;54.300;18.592;2023-09-19T00:24:12;19.57;93.15
67249;SHT31;63247;54.300;18.592;2023-09-19T00:26:39;19.58;93.13
67249;SHT31;63247;54.300;18.592;2023-09-19T00:29:05;19.56;93.47
67249;SHT31;63247;54.300;18.592;2023-09-19T00:31:34;19.56;93.20
67249;SHT31;63247;54.300;18.592;2023-09-19T00:33:59;19.56;93.38
67249;SHT31;63247;54.300;18.592;2023-09-19T00:36:31;19.54;93.39
67249;SHT31;63247;54.300;18.592;2023-09-19T00:38:58;19.43;93.89
67249;SHT31;63247;54.300;18.592;2023-09-19T00:41:24;19.41;94.05
67249;SHT31;63247;54.300;18.592;2023-09-19T00:43:50;19.40;93.96
67249;SHT31;63247;54.300;18.592;2023-09-19T00:46:18;19.45;94.05
67249;SHT31;63247;54.300;18.592;2023-09-19T00:48:44;19.37;94.10
67249;SHT31;63247;54.300;18.592;2023-09-19T00:51:10;19.41;93.98
67249;SHT31;63247;54.300;18.592;2023-09-19T00:53:36;19.38;94.22
67249;SHT31;63247;54.300;18.592;2023-09-19T00:56:02;19.36;94.21
67249;SHT31;63247;54.300;18.592;2023-09-19T00:58:33;19.33;94.44
67249;SHT31;63247;54.300;18.592;2023-09-19T01:00:59;19.31;94.40
67249;SHT31;63247;54.300;18.592;2023-09-19T01:03:24;19.24;94.79
67249;SHT31;63247;54.300;18.592;2023-09-19T01:05:49;19.15;95.57
67249;SHT31;63247;54.300;18.592;2023-09-19T01:08:15;19.05;96.25
67249;SHT31;63247;54.300;18.592;2023-09-19T01:10:49;19.06;96.32
67249;SHT31;63247;54.300;18.592;2023-09-19T01:13:31;19.10;95.90
67249;SHT31;63247;54.300;18.592;2023-09-19T01:30:27;19.06;96.14
67249;SHT31;63247;54.300;18.592;2023-09-19T01:32:56;18.92;96.75
67249;SHT31;63247;54.300;18.592;2023-09-19T01:35:22;18.94;96.66
67249;SHT31;63247;54.300;18.592;2023-09-19T01:37:48;18.84;97.24
67249;SHT31;63247;54.300;18.592;2023-09-19T01:40:17;18.85;97.25
67249;SHT31;63247;54.300;18.592;2023-09-19T01:48:07;18.87;97.68
67249;SHT31;63247;54.300;18.592;2023-09-19T01:51:05;18.81;97.76
67249;SHT31;63247;54.300;18.592;2023-09-19T01:53:44;18.92;97.65
67249;SHT31;63247;54.300;18.592;2023-09-19T01:56:25;18.95;97.54
67249;SHT31;63247;54.300;18.592;2023-09-19T01:58:54;19.02;97.66
67249;SHT31;63247;54.300;18.592;2023-09-19T02:01:23;19.05;97.81
67249;SHT31;63247;54.300;18.592;2023-09-19T02:03:49;19.09;97.97
67249;SHT31;63247;54.300;18.592;2023-09-19T02:06:15;19.15;97.76
67249;SHT31;63247;54.300;18.592;2023-09-19T02:08:43;19.20;97.81
67249;SHT31;63247;54.300;18.592;2023-09-19T02:11:10;19.24;97.80
67249;SHT31;63247;54.300;18.592;2023-09-19T02:13:36;19.26;97.72
67249;SHT31;63247;54.300;18.592;2023-09-19T02:16:01;19.29;97.65
67249;SHT31;63247;54.300;18.592;2023-09-19T02:18:29;19.37;97.46
67249;SHT31;63247;54.300;18.592;2023-09-19T02:20:56;19.41;97.32
67249;SHT31;63247;54.300;18.592;2023-09-19T02:23:21;19.46;97.26
67249;SHT31;63247;54.300;18.592;2023-09-19T02:25:56;19.46;97.07
67249;SHT31;63247;54.300;18.592;2023-09-19T02:28:29;19.57;96.70
67249;SHT31;63247;54.300;18.592;2023-09-19T02:30:58;19.53;96.83
67249;SHT31;63247;54.300;18.592;2023-09-19T02:33:23;19.60;96.42
67249;SHT31;63247;54.300;18.592;2023-09-19T02:35:49;19.66;95.95
67249;SHT31;63247;54.300;18.592;2023-09-19T02:38:15;19.63;96.04
67249;SHT31;63247;54.300;18.592;2023-09-19T02:40:46;19.64;95.95
67249;SHT31;63247;54.300;18.592;2023-09-19T02:43:11;19.46;96.37
67249;SHT31;63247;54.300;18.592;2023-09-19T02:45:37;19.41;96.49
67249;SHT31;63247;54.300;18.592;2023-09-19T02:48:02;19.36;96.64
67249;SHT31;63247;54.300;18.592;2023-09-19T02:50:28;19.36;96.52
67249;SHT31;63247;54.300;18.592;2023-09-19T02:52:53;19.30;96.77
67249;SHT31;63247;54.300;18.592;2023-09-19T02:55:19;19.27;96.80
67249;SHT31;63247;54.300;18.592;2023-09-19T02:57:49;19.26;97.03
67249;SHT31;63247;54.300;18.592;2023-09-19T03:00:16;19.36;96.88
67249;SHT31;63247;54.300;18.592;2023-09-19T03:02:42;19.20;97.21
67249;SHT31;63247;54.300;18.592;2023-09-19T03:05:08;19.17;97.49
67249;SHT31;63247;54.300;18.592;2023-09-19T03:07:36;19.17;98.03
67249;SHT31;63247;54.300;18.592;2023-09-19T03:10:02;19.15;97.96
67249;SHT31;63247;54.300;18.592;2023-09-19T03:12:28;19.12;98.15
67249;SHT31;63247;54.300;18.592;2023-09-19T03:14:54;18.96;99.09
67249;SHT31;63247;54.300;18.592;2023-09-19T03:17:20;18.91;98.98
67249;SHT31;63247;54.300;18.592;2023-09-19T03:19:46;18.91;98.99
67249;SHT31;63247;54.300;18.592;2023-09-19T03:22:13;18.89;99.15
67249;SHT31;63247;54.300;18.592;2023-09-19T03:24:39;18.87;99.30
67249;SHT31;63247;54.300;18.592;2023-09-19T03:27:04;18.94;99.37
67249;SHT31;63247;54.300;18.592;2023-09-19T03:29:29;18.73;99.99
67249;SHT31;63247;54.300;18.592;2023-09-19T03:31:55;18.71;99.99
67249;SHT31;63247;54.300;18.592;2023-09-19T03:34:20;18.61;99.99
67249;SHT31;63247;54.300;18.592;2023-09-19T03:36:47;18.55;99.99
67249;SHT31;63247;54.300;18.592;2023-09-19T03:39:12;18.55;99.99
67249;SHT31;63247;54.300;18.592;2023-09-19T03:41:40;18.50;99.99
67249;SHT31;63247;54.300;18.592;2023-09-19T03:44:05;18.44;99.99
67249;SHT31;63247;54.300;18.592;2023-09-19T03:46:31;18.41;99.99
67249;SHT31;63247;54.300;18.592;2023-09-19T03:48:57;18.30;99.99
67249;SHT31;63247;54.300;18.592;2023-09-19T03:51:22;18.23;99.99
67249;SHT31;63247;54.300;18.592;2023-09-19T03:53:48;18.14;99.99
67249;SHT31;63247;54.300;18.592;2023-09-19T03:56:15;18.10;99.99
67249;SHT31;63247;54.300;18.592;2023-09-19T03:58:40;18.09;99.99
67249;SHT31;63247;54.300;18.592;2023-09-19T04:01:06;18.10;99.99
67249;SHT31;63247;54.300;18.592;2023-09-19T04:03:33;18.07;99.99
67249;SHT31;63247;54.300;18.592;2023-09-19T04:06:18;18.02;99.99
67249;SHT31;63247;54.300;18.592;2023-09-19T04:08:44;18.02;99.99
67249;SHT31;63247;54.300;18.592;2023-09-19T04:11:10;18.03;99.99
67249;SHT31;63247;54.300;18.592;2023-09-19T04:13:36;18.24;99.99
67249;SHT31;63247;54.300;18.592;2023-09-19T04:16:02;18.20;99.99
67249;SHT31;63247;54.300;18.592;2023-09-19T04:18:29;18.24;99.99
67249;SHT31;63247;54.300;18.592;2023-09-19T04:20:57;18.17;99.99
67249;SHT31;63247;54.300;18.592;2023-09-19T04:23:23;18.14;99.99
67249;SHT31;63247;54.300;18.592;2023-09-19T04:25:48;18.06;99.99
67249;SHT31;63247;54.300;18.592;2023-09-19T04:28:14;18.09;99.99
67249;SHT31;63247;54.300;18.592;2023-09-19T04:30:40;17.92;99.99
67249;SHT31;63247;54.300;18.592;2023-09-19T04:33:06;17.99;99.99
67249;SHT31;63247;54.300;18.592;2023-09-19T04:35:32;17.94;99.99
67249;SHT31;63247;54.300;18.592;2023-09-19T04:37:57;17.90;99.99
67249;SHT31;63247;54.300;18.592;2023-09-19T04:40:23;17.89;99.99
67249;SHT31;63247;54.300;18.592;2023-09-19T04:42:57;17.82;99.99
67249;SHT31;63247;54.300;18.592;2023-09-19T04:45:23;17.76;99.99
67249;SHT31;63247;54.300;18.592;2023-09-19T04:47:49;17.72;99.99
67249;SHT31;63247;54.300;18.592;2023-09-19T04:50:14;17.75;99.99
67249;SHT31;63247;54.300;18.592;2023-09-19T04:52:44;17.72;99.99
67249;SHT31;63247;54.300;18.592;2023-09-19T04:55:13;17.71;99.99
67249;SHT31;63247;54.300;18.592;2023-09-19T04:57:46;17.72;99.99
67249;SHT31;63247;54.300;18.592;2023-09-19T05:00:22;17.65;99.99
67249;SHT31;63247;54.300;18.592;2023-09-19T05:02:55;17.66;99.99
67249;SHT31;63247;54.300;18.592;2023-09-19T05:05:21;17.62;99.99
67249;SHT31;63247;54.300;18.592;2023-09-19T05:07:48;17.65;99.99
67249;SHT31;63247;54.300;18.592;2023-09-19T05:10:13;17.59;99.99
67249;SHT31;63247;54.300;18.592;2023-09-19T05:12:39;17.62;99.99
67249;SHT31;63247;54.300;18.592;2023-09-19T05:15:05;17.62;99.99
67249;SHT31;63247;54.300;18.592;2023-09-19T05:17:35;17.61;99.99
67249;SHT31;63247;54.300;18.592;2023-09-19T05:20:02;17.69;99.99
67249;SHT31;63247;54.300;18.592;2023-09-19T05:22:44;17.64;99.99
67249;SHT31;63247;54.300;18.592;2023-09-19T05:25:11;17.62;99.99
67249;SHT31;63247;54.300;18.592;2023-09-19T05:27:41;17.62;99.99
67249;SHT31;63247;54.300;18.592;2023-09-19T05:30:07;17.69;99.99
67249;SHT31;63247;54.300;18.592;2023-09-19T05:32:33;17.66;99.99
67249;SHT31;63247;54.300;18.592;2023-09-19T05:34:58;17.69;99.99
67249;SHT31;63247;54.300;18.592;2023-09-19T05:37:24;17.68;99.99
67249;SHT31;63247;54.300;18.592;2023-09-19T05:39:51;17.64;99.99
67249;SHT31;63247;54.300;18.592;2023-09-19T05:42:16;17.61;99.99
67249;SHT31;63247;54.300;18.592;2023-09-19T05:44:42;17.64;99.99
67249;SHT31;63247;54.300;18.592;2023-09-19T05:47:08;17.71;99.99
67249;SHT31;63247;54.300;18.592;2023-09-19T05:49:35;17.78;99.99
67249;SHT31;63247;54.300;18.592;2023-09-19T05:52:06;17.89;99.99
67249;SHT31;63247;54.300;18.592;2023-09-19T05:54:32;17.93;99.99
67249;SHT31;63247;54.300;18.592;2023-09-19T05:56:59;17.97;99.99
67249;SHT31;63247;54.300;18.592;2023-09-19T05:59:25;18.03;99.99
67249;SHT31;63247;54.300;18.592;2023-09-19T06:01:50;18.12;99.99
67249;SHT31;63247;54.300;18.592;2023-09-19T06:04:17;18.13;99.99
67249;SHT31;63247;54.300;18.592;2023-09-19T06:06:44;18.04;99.99
67249;SHT31;63247;54.300;18.592;2023-09-19T06:09:09;18.12;99.99
67249;SHT31;63247;54.300;18.592;2023-09-19T06:11:35;18.00;99.99
67249;SHT31;63247;54.300;18.592;2023-09-19T06:14:04;18.02;99.99
67249;SHT31;63247;54.300;18.592;2023-09-19T06:16:30;18.14;99.99
67249;SHT31;63247;54.300;18.592;2023-09-19T06:18:57;18.10;99.99
67249;SHT31;63247;54.300;18.592;2023-09-19T06:21:25;18.21;99.99
67249;SHT31;63247;54.300;18.592;2023-09-19T06:23:52;18.36;99.99
67249;SHT31;63247;54.300;18.592;2023-09-19T06:26:17;18.41;99.99
67249;SHT31;63247;54.300;18.592;2023-09-19T06:28:43;18.41;99.99
67249;SHT31;63247;54.300;18.592;2023-09-19T06:31:09;18.41;99.99
67249;SHT31;63247;54.300;18.592;2023-09-19T06:33:38;18.45;99.99
67249;SHT31;63247;54.300;18.592;2023-09-19T06:36:05;18.55;99.99
67249;SHT31;63247;54.300;18.592;2023-09-19T06:38:30;18.78;99.99
67249;SHT31;63247;54.300;18.592;2023-09-19T06:40:58;18.95;99.99
67249;SHT31;63247;54.300;18.592;2023-09-19T06:43:23;18.96;99.99
67249;SHT31;63247;54.300;18.592;2023-09-19T06:45:49;19.02;99.99
67249;SHT31;63247;54.300;18.592;2023-09-19T06:48:17;19.00;99.99
67249;SHT31;63247;54.300;18.592;2023-09-19T06:50:42;18.96;99.99
67249;SHT31;63247;54.300;18.592;2023-09-19T06:53:09;19.09;99.99
67249;SHT31;63247;54.300;18.592;2023-09-19T06:55:35;19.09;99.99
67249;SHT31;63247;54.300;18.592;2023-09-19T06:58:01;19.03;99.99
67249;SHT31;63247;54.300;18.592;2023-09-19T07:00:27;18.99;99.99
67249;SHT31;63247;54.300;18.592;2023-09-19T07:03:01;19.03;99.99
67249;SHT31;63247;54.300;18.592;2023-09-19T07:05:29;19.10;99.99
67249;SHT31;63247;54.300;18.592;2023-09-19T07:07:54;19.08;99.99
67249;SHT31;63247;54.300;18.592;2023-09-19T07:10:30;19.15;99.99
67249;SHT31;63247;54.300;18.592;2023-09-19T07:12:59;19.16;99.99
67249;SHT31;63247;54.300;18.592;2023-09-19T07:15:25;19.29;99.99
67249;SHT31;63247;54.300;18.592;2023-09-19T07:17:52;19.37;99.99
67249;SHT31;63247;54.300;18.592;2023-09-19T07:20:18;19.53;99.99
67249;SHT31;63247;54.300;18.592;2023-09-19T07:22:44;19.82;99.99
67249;SHT31;63247;54.300;18.592;2023-09-19T07:25:09;19.87;99.99
67249;SHT31;63247;54.300;18.592;2023-09-19T07:27:35;19.91;99.99
67249;SHT31;63247;54.300;18.592;2023-09-19T07:30:00;19.81;99.99
67249;SHT31;63247;54.300;18.592;2023-09-19T07:32:25;20.12;99.99
67249;SHT31;63247;54.300;18.592;2023-09-19T07:34:51;20.09;99.40
67249;SHT31;63247;54.300;18.592;2023-09-19T07:37:16;19.99;99.99
67249;SHT31;63247;54.300;18.592;2023-09-19T07:39:42;19.89;99.99
67249;SHT31;63247;54.300;18.592;2023-09-19T07:42:08;19.85;99.99
67249;SHT31;63247;54.300;18.592;2023-09-19T07:44:35;19.85;99.86
67249;SHT31;63247;54.300;18.592;2023-09-19T07:47:01;19.75;99.99
67249;SHT31;63247;54.300;18.592;2023-09-19T07:49:28;19.70;99.99
67249;SHT31;63247;54.300;18.592;2023-09-19T07:51:54;19.60;99.99
67249;SHT31;63247;54.300;18.592;2023-09-19T07:54:20;19.60;99.99
67249;SHT31;63247;54.300;18.592;2023-09-19T07:56:45;19.67;99.99
67249;SHT31;63247;54.300;18.592;2023-09-19T07:59:11;19.71;99.99
67249;SHT31;63247;54.300;18.592;2023-09-19T08:01:37;19.56;99.99
67249;SHT31;63247;54.300;18.592;2023-09-19T08:04:02;19.53;99.99
67249;SHT31;63247;54.300;18.592;2023-09-19T08:06:28;19.51;99.99
67249;SHT31;63247;54.300;18.592;2023-09-19T08:08:55;19.45;99.99
67249;SHT31;63247;54.300;18.592;2023-09-19T08:11:22;19.57;99.99
67249;SHT31;63247;54.300;18.592;2023-09-19T08:13:49;19.56;99.99
67249;SHT31;63247;54.300;18.592;2023-09-19T08:16:15;19.53;99.99
67249;SHT31;63247;54.300;18.592;2023-09-19T08:18:41;19.70;99.99
67249;SHT31;63247;54.300;18.592;2023-09-19T08:21:07;20.16;99.63
67249;SHT31;63247;54.300;18.592;2023-09-19T08:23:36;22.38;91.82
67249;SHT31;63247;54.300;18.592;2023-09-19T08:26:01;23.51;89.11
67249;SHT31;63247;54.300;18.592;2023-09-19T08:28:32;24.49;86.50
67249;SHT31;63247;54.300;18.592;2023-09-19T08:31:04;26.01;83.56
67249;SHT31;63247;54.300;18.592;2023-09-19T08:33:34;25.50;82.31
67249;SHT31;63247;54.300;18.592;2023-09-19T08:36:01;24.36;84.72
67249;SHT31;63247;54.300;18.592;2023-09-19T08:38:26;23.53;87.40
67249;SHT31;63247;54.300;18.592;2023-09-19T08:41:07;23.74;87.06
67249;SHT31;63247;54.300;18.592;2023-09-19T08:43:33;23.46;85.65
67249;SHT31;63247;54.300;18.592;2023-09-19T08:46:20;23.03;87.69
67249;SHT31;63247;54.300;18.592;2023-09-19T08:51:21;22.13;88.98
67249;SHT31;63247;54.300;18.592;2023-09-19T08:54:07;23.92;84.31
67249;SHT31;63247;54.300;18.592;2023-09-19T08:56:33;24.50;83.93
67249;SHT31;63247;54.300;18.592;2023-09-19T08:59:05;24.61;84.08
67249;SHT31;63247;54.300;18.592;2023-09-19T09:01:34;26.35;78.32
67249;SHT31;63247;54.300;18.592;2023-09-19T09:04:01;27.02;77.76
67249;SHT31;63247;54.300;18.592;2023-09-19T09:06:27;26.17;77.63
67249;SHT31;63247;54.300;18.592;2023-09-19T09:08:57;25.08;78.93
67249;SHT31;63247;54.300;18.592;2023-09-19T09:11:23;27.54;75.65
67249;SHT31;63247;54.300;18.592;2023-09-19T09:13:50;28.08;73.57
67249;SHT31;63247;54.300;18.592;2023-09-19T09:16:15;27.38;75.21
67249;SHT31;63247;54.300;18.592;2023-09-19T09:18:45;25.05;78.77
67249;SHT31;63247;54.300;18.592;2023-09-19T09:21:11;25.41;79.81
67249;SHT31;63247;54.300;18.592;2023-09-19T09:23:37;25.84;77.80
67249;SHT31;63247;54.300;18.592;2023-09-19T09:26:04;25.91;77.21
67249;SHT31;63247;54.300;18.592;2023-09-19T09:28:32;24.77;80.79
67249;SHT31;63247;54.300;18.592;2023-09-19T09:30:59;25.05;78.90
67249;SHT31;63247;54.300;18.592;2023-09-19T09:33:24;27.75;74.14
67249;SHT31;63247;54.300;18.592;2023-09-19T09:38:27;26.93;74.33
67249;SHT31;63247;54.300;18.592;2023-09-19T09:40:54;25.56;77.08
67249;SHT31;63247;54.300;18.592;2023-09-19T09:43:40;24.98;77.60
67249;SHT31;63247;54.300;18.592;2023-09-19T09:46:19;24.85;77.19
67249;SHT31;63247;54.300;18.592;2023-09-19T09:51:42;23.57;81.06
67249;SHT31;63247;54.300;18.592;2023-09-19T09:54:18;24.59;79.58
67249;SHT31;63247;54.300;18.592;2023-09-19T09:56:57;25.11;78.04
67249;SHT31;63247;54.300;18.592;2023-09-19T10:02:18;25.76;76.08
67249;SHT31;63247;54.300;18.592;2023-09-19T10:04:53;24.33;77.95
67249;SHT31;63247;54.300;18.592;2023-09-19T10:07:29;24.13;79.04
67249;SHT31;63247;54.300;18.592;2023-09-19T10:10:04;23.41;80.91
67249;SHT31;63247;54.300;18.592;2023-09-19T10:12:46;22.88;82.29
67249;SHT31;63247;54.300;18.592;2023-09-19T10:15:17;22.41;83.31
67249;SHT31;63247;54.300;18.592;2023-09-19T10:17:46;22.07;83.69
67249;SHT31;63247;54.300;18.592;2023-09-19T10:20:17;22.14;84.08
67249;SHT31;63247;54.300;18.592;2023-09-19T10:22:52;22.20;84.41
67249;SHT31;63247;54.300;18.592;2023-09-19T10:25:28;22.20;84.40
67249;SHT31;63247;54.300;18.592;2023-09-19T10:27:54;23.41;82.04
67249;SHT31;63247;54.300;18.592;2023-09-19T10:30:22;23.09;82.17
67249;SHT31;63247;54.300;18.592;2023-09-19T10:32:57;23.10;82.25
67249;SHT31;63247;54.300;18.592;2023-09-19T10:35:25;23.20;82.33
67249;SHT31;63247;54.300;18.592;2023-09-19T10:37:51;22.89;83.28
67249;SHT31;63247;54.300;18.592;2023-09-19T10:40:20;22.89;83.02
67249;SHT31;63247;54.300;18.592;2023-09-19T10:42:48;22.58;82.75
67249;SHT31;63247;54.300;18.592;2023-09-19T10:45:15;22.41;83.27
67249;SHT31;63247;54.300;18.592;2023-09-19T10:47:45;23.16;82.05
67249;SHT31;63247;54.300;18.592;2023-09-19T10:50:20;23.88;78.90
67249;SHT31;63247;54.300;18.592;2023-09-19T10:52:47;24.16;78.30
67249;SHT31;63247;54.300;18.592;2023-09-19T10:55:19;24.41;78.14
67249;SHT31;63247;54.300;18.592;2023-09-19T10:57:47;24.04;78.06
67249;SHT31;63247;54.300;18.592;2023-09-19T11:00:13;24.57;76.74
67249;SHT31;63247;54.300;18.592;2023-09-19T11:05:38;24.23;75.18
67249;SHT31;63247;54.300;18.592;2023-09-19T11:08:10;23.77;76.33
67249;SHT31;63247;54.300;18.592;2023-09-19T11:10:47;23.64;77.41
67249;SHT31;63247;54.300;18.592;2023-09-19T11:21:51;22.72;78.58
67249;SHT31;63247;54.300;18.592;2023-09-19T11:26:49;23.40;76.22
67249;SHT31;63247;54.300;18.592;2023-09-19T11:29:24;23.28;75.43
67249;SHT31;63247;54.300;18.592;2023-09-19T11:31:50;23.24;74.11
67249;SHT31;63247;54.300;18.592;2023-09-19T11:39:36;23.72;74.20
67249;SHT31;63247;54.300;18.592;2023-09-19T11:42:41;23.77;75.25
67249;SHT31;63247;54.300;18.592;2023-09-19T11:45:07;23.37;74.38
67249;SHT31;63247;54.300;18.592;2023-09-19T11:47:33;23.37;74.06
67249;SHT31;63247;54.300;18.592;2023-09-19T11:50:01;23.88;74.51
67249;SHT31;63247;54.300;18.592;2023-09-19T11:52:28;23.99;74.44
67249;SHT31;63247;54.300;18.592;2023-09-19T11:55:00;23.60;73.05
67249;SHT31;63247;54.300;18.592;2023-09-19T11:57:27;23.27;73.03
67249;SHT31;63247;54.300;18.592;2023-09-19T11:59:53;23.31;72.75
67249;SHT31;63247;54.300;18.592;2023-09-19T12:02:35;23.30;72.56
67249;SHT31;63247;54.300;18.592;2023-09-19T12:05:05;23.23;72.25
67249;SHT31;63247;54.300;18.592;2023-09-19T12:07:42;23.27;70.54
67249;SHT31;63247;54.300;18.592;2023-09-19T12:10:07;23.53;69.34
67249;SHT31;63247;54.300;18.592;2023-09-19T12:12:36;23.40;68.35
67249;SHT31;63247;54.300;18.592;2023-09-19T12:15:02;23.44;69.91
67249;SHT31;63247;54.300;18.592;2023-09-19T12:17:39;23.12;71.00
67249;SHT31;63247;54.300;18.592;2023-09-19T12:20:08;22.86;71.60
67249;SHT31;63247;54.300;18.592;2023-09-19T12:22:44;22.72;72.29
67249;SHT31;63247;54.300;18.592;2023-09-19T12:25:10;22.75;72.78
67249;SHT31;63247;54.300;18.592;2023-09-19T12:27:47;22.86;73.00
67249;SHT31;63247;54.300;18.592;2023-09-19T12:30:13;22.41;74.29
67249;SHT31;63247;54.300;18.592;2023-09-19T12:32:40;22.65;73.97
67249;SHT31;63247;54.300;18.592;2023-09-19T12:35:08;22.41;74.70
67249;SHT31;63247;54.300;18.592;2023-09-19T12:37:37;22.54;75.02
67249;SHT31;63247;54.300;18.592;2023-09-19T12:40:07;22.31;75.33
67249;SHT31;63247;54.300;18.592;2023-09-19T12:42:46;22.38;76.14
67249;SHT31;63247;54.300;18.592;2023-09-19T12:45:12;22.76;76.16
67249;SHT31;63247;54.300;18.592;2023-09-19T12:47:39;23.27;74.31
67249;SHT31;63247;54.300;18.592;2023-09-19T12:50:13;23.49;73.85
67249;SHT31;63247;54.300;18.592;2023-09-19T12:52:48;23.86;73.15
67249;SHT31;63247;54.300;18.592;2023-09-19T12:55:22;24.06;73.35
67249;SHT31;63247;54.300;18.592;2023-09-19T12:58:07;23.60;73.00
67249;SHT31;63247;54.300;18.592;2023-09-19T13:00:41;23.09;75.19
67249;SHT31;63247;54.300;18.592;2023-09-19T13:03:27;22.81;74.71
67249;SHT31;63247;54.300;18.592;2023-09-19T13:06:03;22.71;74.75
67249;SHT31;63247;54.300;18.592;2023-09-19T13:08:32;22.82;74.40
67249;SHT31;63247;54.300;18.592;2023-09-19T13:11:08;22.83;74.08
67249;SHT31;63247;54.300;18.592;2023-09-19T13:16:20;22.85;75.25
67249;SHT31;63247;54.300;18.592;2023-09-19T13:18:58;23.64;73.20
67249;SHT31;63247;54.300;18.592;2023-09-19T13:21:28;23.43;71.40
67249;SHT31;63247;54.300;18.592;2023-09-19T13:23:55;23.74;70.76
67249;SHT31;63247;54.300;18.592;2023-09-19T13:26:28;23.53;70.57
67249;SHT31;63247;54.300;18.592;2023-09-19T13:28:54;23.31;71.76
67249;SHT31;63247;54.300;18.592;2023-09-19T13:31:19;23.65;72.26
67249;SHT31;63247;54.300;18.592;2023-09-19T13:33:46;23.71;70.94
67249;SHT31;63247;54.300;18.592;2023-09-19T13:36:12;23.57;68.62
67249;SHT31;63247;54.300;18.592;2023-09-19T13:38:41;23.53;69.00
67249;SHT31;63247;54.300;18.592;2023-09-19T13:41:10;23.14;69.30
67249;SHT31;63247;54.300;18.592;2023-09-19T13:43:38;22.64;70.64
67249;SHT31;63247;54.300;18.592;2023-09-19T13:46:04;22.16;71.45
67249;SHT31;63247;54.300;18.592;2023-09-19T13:48:30;22.00;72.12
67249;SHT31;63247;54.300;18.592;2023-09-19T13:50:56;21.97;72.39
67249;SHT31;63247;54.300;18.592;2023-09-19T13:53:22;21.75;72.31
67249;SHT31;63247;54.300;18.592;2023-09-19T13:55:47;21.63;73.27
67249;SHT31;63247;54.300;18.592;2023-09-19T13:58:14;21.50;73.32
67249;SHT31;63247;54.300;18.592;2023-09-19T14:00:39;21.62;73.62
67249;SHT31;63247;54.300;18.592;2023-09-19T14:03:05;21.73;73.43
67249;SHT31;63247;54.300;18.592;2023-09-19T14:05:31;21.79;73.21
67249;SHT31;63247;54.300;18.592;2023-09-19T14:07:56;22.11;73.13
67249;SHT31;63247;54.300;18.592;2023-09-19T14:10:24;22.24;72.79
67249;SHT31;63247;54.300;18.592;2023-09-19T14:12:53;21.89;73.24
67249;SHT31;63247;54.300;18.592;2023-09-19T14:15:18;21.60;72.95
67249;SHT31;63247;54.300;18.592;2023-09-19T14:17:43;21.45;73.07
67249;SHT31;63247;54.300;18.592;2023-09-19T14:20:12;21.27;73.53
67249;SHT31;63247;54.300;18.592;2023-09-19T14:22:38;21.15;74.00
67249;SHT31;63247;54.300;18.592;2023-09-19T14:25:04;20.91;75.68
67249;SHT31;63247;54.300;18.592;2023-09-19T14:27:30;20.84;75.35
67249;SHT31;63247;54.300;18.592;2023-09-19T14:29:55;20.85;75.28
67249;SHT31;63247;54.300;18.592;2023-09-19T14:32:22;21.11;75.86
67249;SHT31;63247;54.300;18.592;2023-09-19T14:34:48;21.29;76.75
67249;SHT31;63247;54.300;18.592;2023-09-19T14:37:14;21.53;76.71
67249;SHT31;63247;54.300;18.592;2023-09-19T14:39:41;21.70;76.63
67249;SHT31;63247;54.300;18.592;2023-09-19T14:42:10;21.67;76.99
67249;SHT31;63247;54.300;18.592;2023-09-19T14:44:35;21.45;78.04
67249;SHT31;63247;54.300;18.592;2023-09-19T14:47:02;21.62;78.16
67249;SHT31;63247;54.300;18.592;2023-09-19T14:49:29;21.76;78.08
67249;SHT31;63247;54.300;18.592;2023-09-19T14:51:55;21.43;78.38
67249;SHT31;63247;54.300;18.592;2023-09-19T14:54:20;21.34;78.48
67249;SHT31;63247;54.300;18.592;2023-09-19T14:56:47;21.45;78.03
67249;SHT31;63247;54.300;18.592;2023-09-19T14:59:19;21.18;78.34
67249;SHT31;63247;54.300;18.592;2023-09-19T15:01:45;20.95;78.78
67249;SHT31;63247;54.300;18.592;2023-09-19T15:04:10;20.92;79.00
67249;SHT31;63247;54.300;18.592;2023-09-19T15:06:36;20.69;78.50
67249;SHT31;63247;54.300;18.592;2023-09-19T15:09:02;20.71;78.81
67249;SHT31;63247;54.300;18.592;2023-09-19T15:11:29;20.64;79.05
67249;SHT31;63247;54.300;18.592;2023-09-19T15:13:55;20.43;79.66
67249;SHT31;63247;54.300;18.592;2023-09-19T15:16:21;20.47;79.37
67249;SHT31;63247;54.300;18.592;2023-09-19T15:18:47;20.21;80.38
67249;SHT31;63247;54.300;18.592;2023-09-19T15:21:13;20.29;80.02
67249;SHT31;63247;54.300;18.592;2023-09-19T15:23:41;20.23;80.03
67249;SHT31;63247;54.300;18.592;2023-09-19T15:26:08;20.06;79.90
67249;SHT31;63247;54.300;18.592;2023-09-19T15:28:34;20.08;79.60
67249;SHT31;63247;54.300;18.592;2023-09-19T15:33:25;19.99;79.98
67249;SHT31;63247;54.300;18.592;2023-09-19T15:36:02;19.95;78.93
67249;SHT31;63247;54.300;18.592;2023-09-19T15:38:29;19.89;79.54
67249;SHT31;63247;54.300;18.592;2023-09-19T15:40:54;19.66;79.78
67249;SHT31;63247;54.300;18.592;2023-09-19T15:43:20;19.61;80.00
67249;SHT31;63247;54.300;18.592;2023-09-19T15:45:47;19.51;80.92
67249;SHT31;63247;54.300;18.592;2023-09-19T15:48:13;19.50;80.09
67249;SHT31;63247;54.300;18.592;2023-09-19T15:50:39;19.27;80.40
67249;SHT31;63247;54.300;18.592;2023-09-19T15:53:07;19.20;80.51
67249;SHT31;63247;54.300;18.592;2023-09-19T15:55:38;19.08;80.74
67249;SHT31;63247;54.300;18.592;2023-09-19T15:58:05;18.94;81.24
67249;SHT31;63247;54.300;18.592;2023-09-19T16:00:32;18.81;81.09
67249;SHT31;63247;54.300;18.592;2023-09-19T16:03:00;18.71;81.24
67249;SHT31;63247;54.300;18.592;2023-09-19T16:05:26;18.61;81.39
67249;SHT31;63247;54.300;18.592;2023-09-19T16:07:52;18.47;81.76
67249;SHT31;63247;54.300;18.592;2023-09-19T16:10:17;18.37;81.89
67249;SHT31;63247;54.300;18.592;2023-09-19T16:12:43;18.26;82.11
67249;SHT31;63247;54.300;18.592;2023-09-19T16:15:08;18.23;82.18
67249;SHT31;63247;54.300;18.592;2023-09-19T16:17:39;18.18;82.54